sensor_id;sensor_type;location;lat;lon;timestamp;P1;durP1;ratioP1;P2;durP2;ratioP2
11533;SDS011;5823;50.588;8.462;2023-05-23T00:01:46;1.02;;;1.02;;
11533;SDS011;5823;50.588;8.462;2023-05-23T00:04:14;1.02;;;1.00;;
11533;SDS011;5823;50.588;8.462;2023-05-23T00:06:42;1.30;;;1.20;;
11533;SDS011;5823;50.588;8.462;2023-05-23T00:09:11;1.30;;;1.20;;
11533;SDS011;5823;50.588;8.462;2023-05-23T00:11:37;1.27;;;1.17;;
11533;SDS011;5823;50.588;8.462;2023-05-23T00:14:03;1.42;;;1.33;;
11533;SDS011;5823;50.588;8.462;2023-05-23T00:16:32;1.20;;;1.10;;
11533;SDS011;5823;50.588;8.462;2023-05-23T00:18:58;1.50;;;1.40;;
11533;SDS011;5823;50.588;8.462;2023-05-23T00:21:27;1.55;;;1.45;;
11533;SDS011;5823;50.588;8.462;2023-05-23T00:23:54;1.70;;;1.60;;
11533;SDS011;5823;50.588;8.462;2023-05-23T00:26:20;1.60;;;1.50;;
11533;SDS011;5823;50.588;8.462;2023-05-23T00:28:48;1.30;;;1.23;;
11533;SDS011;5823;50.588;8.462;2023-05-23T00:31:14;1.90;;;1.70;;
11533;SDS011;5823;50.588;8.462;2023-05-23T00:33:41;2.08;;;1.88;;
11533;SDS011;5823;50.588;8.462;2023-05-23T00:36:07;2.85;;;2.35;;
11533;SDS011;5823;50.588;8.462;2023-05-23T00:38:35;2.55;;;2.35;;
11533;SDS011;5823;50.588;8.462;2023-05-23T00:41:01;2.80;;;2.60;;
11533;SDS011;5823;50.588;8.462;2023-05-23T00:43:27;2.42;;;2.22;;
11533;SDS011;5823;50.588;8.462;2023-05-23T00:45:54;2.22;;;2.03;;
11533;SDS011;5823;50.588;8.462;2023-05-23T00:48:20;2.10;;;1.90;;
11533;SDS011;5823;50.588;8.462;2023-05-23T00:50:46;1.60;;;1.50;;
11533;SDS011;5823;50.588;8.462;2023-05-23T00:53:13;1.80;;;1.70;;
11533;SDS011;5823;50.588;8.462;2023-05-23T00:55:42;3.13;;;2.83;;
11533;SDS011;5823;50.588;8.462;2023-05-23T00:58:09;2.50;;;2.30;;
11533;SDS011;5823;50.588;8.462;2023-05-23T01:00:35;2.03;;;1.92;;
11533;SDS011;5823;50.588;8.462;2023-05-23T01:03:03;3.65;;;3.35;;
11533;SDS011;5823;50.588;8.462;2023-05-23T01:05:29;2.58;;;2.38;;
11533;SDS011;5823;50.588;8.462;2023-05-23T01:07:56;1.80;;;1.70;;
11533;SDS011;5823;50.588;8.462;2023-05-23T01:10:23;2.55;;;2.35;;
11533;SDS011;5823;50.588;8.462;2023-05-23T01:12:55;2.28;;;2.08;;
11533;SDS011;5823;50.588;8.462;2023-05-23T01:15:24;2.00;;;1.90;;
11533;SDS011;5823;50.588;8.462;2023-05-23T01:17:56;3.28;;;2.70;;
11533;SDS011;5823;50.588;8.462;2023-05-23T01:20:24;2.08;;;1.92;;
11533;SDS011;5823;50.588;8.462;2023-05-23T01:22:58;1.90;;;1.80;;
11533;SDS011;5823;50.588;8.462;2023-05-23T01:25:27;1.52;;;1.42;;
11533;SDS011;5823;50.588;8.462;2023-05-23T01:27:58;1.80;;;1.70;;
11533;SDS011;5823;50.588;8.462;2023-05-23T01:30:25;1.40;;;1.30;;
11533;SDS011;5823;50.588;8.462;2023-05-23T01:32:53;2.13;;;1.30;;
11533;SDS011;5823;50.588;8.462;2023-05-23T01:35:23;1.58;;;1.48;;
11533;SDS011;5823;50.588;8.462;2023-05-23T01:37:49;1.40;;;1.30;;
11533;SDS011;5823;50.588;8.462;2023-05-23T01:40:15;0.80;;;0.80;;
11533;SDS011;5823;50.588;8.462;2023-05-23T01:42:42;1.00;;;1.00;;
11533;SDS011;5823;50.588;8.462;2023-05-23T01:45:10;0.80;;;0.80;;
11533;SDS011;5823;50.588;8.462;2023-05-23T01:47:37;0.82;;;0.82;;
11533;SDS011;5823;50.588;8.462;2023-05-23T01:50:04;1.00;;;1.00;;
11533;SDS011;5823;50.588;8.462;2023-05-23T01:52:31;0.70;;;0.70;;
11533;SDS011;5823;50.588;8.462;2023-05-23T01:54:57;0.70;;;0.70;;
11533;SDS011;5823;50.588;8.462;2023-05-23T01:57:24;0.75;;;0.75;;
11533;SDS011;5823;50.588;8.462;2023-05-23T01:59:51;0.82;;;0.82;;
11533;SDS011;5823;50.588;8.462;2023-05-23T02:02:18;0.82;;;0.82;;
11533;SDS011;5823;50.588;8.462;2023-05-23T02:04:45;1.10;;;1.00;;
11533;SDS011;5823;50.588;8.462;2023-05-23T02:07:12;0.80;;;0.80;;
11533;SDS011;5823;50.588;8.462;2023-05-23T02:09:38;0.90;;;0.90;;
11533;SDS011;5823;50.588;8.462;2023-05-23T02:12:05;0.63;;;0.63;;
11533;SDS011;5823;50.588;8.462;2023-05-23T02:14:31;0.90;;;0.90;;
11533;SDS011;5823;50.588;8.462;2023-05-23T02:16:58;0.80;;;0.80;;
11533;SDS011;5823;50.588;8.462;2023-05-23T02:19:25;1.08;;;0.98;;
11533;SDS011;5823;50.588;8.462;2023-05-23T02:21:52;1.20;;;1.10;;
11533;SDS011;5823;50.588;8.462;2023-05-23T02:24:18;1.20;;;1.10;;
11533;SDS011;5823;50.588;8.462;2023-05-23T02:26:44;1.15;;;1.13;;
11533;SDS011;5823;50.588;8.462;2023-05-23T02:29:11;1.60;;;1.50;;
11533;SDS011;5823;50.588;8.462;2023-05-23T02:31:37;1.90;;;1.80;;
11533;SDS011;5823;50.588;8.462;2023-05-23T02:34:03;1.60;;;1.50;;
11533;SDS011;5823;50.588;8.462;2023-05-23T02:36:31;1.60;;;1.50;;
11533;SDS011;5823;50.588;8.462;2023-05-23T02:38:58;1.40;;;1.30;;
11533;SDS011;5823;50.588;8.462;2023-05-23T02:41:24;1.75;;;1.33;;
11533;SDS011;5823;50.588;8.462;2023-05-23T02:43:50;1.40;;;1.30;;
11533;SDS011;5823;50.588;8.462;2023-05-23T02:46:17;1.20;;;1.10;;
11533;SDS011;5823;50.588;8.462;2023-05-23T02:48:43;1.33;;;1.13;;
11533;SDS011;5823;50.588;8.462;2023-05-23T02:51:09;1.40;;;1.30;;
11533;SDS011;5823;50.588;8.462;2023-05-23T02:53:38;1.33;;;1.23;;
11533;SDS011;5823;50.588;8.462;2023-05-23T02:56:05;1.10;;;1.00;;
11533;SDS011;5823;50.588;8.462;2023-05-23T02:58:32;1.27;;;1.17;;
11533;SDS011;5823;50.588;8.462;2023-05-23T03:00:59;1.63;;;1.52;;
11533;SDS011;5823;50.588;8.462;2023-05-23T03:03:25;2.10;;;1.90;;
11533;SDS011;5823;50.588;8.462;2023-05-23T03:05:52;1.77;;;1.67;;
11533;SDS011;5823;50.588;8.462;2023-05-23T03:08:18;1.10;;;1.00;;
11533;SDS011;5823;50.588;8.462;2023-05-23T03:10:46;1.50;;;1.40;;
11533;SDS011;5823;50.588;8.462;2023-05-23T03:13:12;1.50;;;1.40;;
11533;SDS011;5823;50.588;8.462;2023-05-23T03:15:38;1.40;;;1.30;;
11533;SDS011;5823;50.588;8.462;2023-05-23T03:18:05;1.17;;;1.08;;
11533;SDS011;5823;50.588;8.462;2023-05-23T03:20:31;1.42;;;1.33;;
11533;SDS011;5823;50.588;8.462;2023-05-23T03:22:57;1.63;;;1.40;;
11533;SDS011;5823;50.588;8.462;2023-05-23T03:25:23;1.30;;;1.20;;
11533;SDS011;5823;50.588;8.462;2023-05-23T03:27:51;1.40;;;1.30;;
11533;SDS011;5823;50.588;8.462;2023-05-23T03:30:17;1.00;;;1.00;;
11533;SDS011;5823;50.588;8.462;2023-05-23T03:32:43;1.48;;;1.38;;
11533;SDS011;5823;50.588;8.462;2023-05-23T03:35:10;1.10;;;1.00;;
11533;SDS011;5823;50.588;8.462;2023-05-23T03:37:36;1.30;;;1.20;;
11533;SDS011;5823;50.588;8.462;2023-05-23T03:40:03;0.90;;;0.90;;
11533;SDS011;5823;50.588;8.462;2023-05-23T03:42:31;1.08;;;1.00;;
11533;SDS011;5823;50.588;8.462;2023-05-23T03:44:59;0.82;;;0.82;;
11533;SDS011;5823;50.588;8.462;2023-05-23T03:47:25;0.75;;;0.75;;
11533;SDS011;5823;50.588;8.462;2023-05-23T03:49:51;0.77;;;0.77;;
11533;SDS011;5823;50.588;8.462;2023-05-23T03:52:17;0.70;;;0.70;;
11533;SDS011;5823;50.588;8.462;2023-05-23T03:54:43;0.47;;;0.47;;
11533;SDS011;5823;50.588;8.462;2023-05-23T03:57:10;1.20;;;1.10;;
11533;SDS011;5823;50.588;8.462;2023-05-23T03:59:36;1.00;;;0.95;;
11533;SDS011;5823;50.588;8.462;2023-05-23T04:02:04;0.90;;;0.90;;
11533;SDS011;5823;50.588;8.462;2023-05-23T04:04:30;0.93;;;0.57;;
11533;SDS011;5823;50.588;8.462;2023-05-23T04:06:57;0.57;;;0.57;;
11533;SDS011;5823;50.588;8.462;2023-05-23T04:09:23;0.73;;;0.73;;
11533;SDS011;5823;50.588;8.462;2023-05-23T04:11:50;0.60;;;0.60;;
11533;SDS011;5823;50.588;8.462;2023-05-23T04:14:16;0.70;;;0.70;;
11533;SDS011;5823;50.588;8.462;2023-05-23T04:16:44;0.50;;;0.50;;
11533;SDS011;5823;50.588;8.462;2023-05-23T04:19:13;0.85;;;0.85;;
11533;SDS011;5823;50.588;8.462;2023-05-23T04:21:39;1.10;;;1.00;;
11533;SDS011;5823;50.588;8.462;2023-05-23T04:24:06;0.95;;;0.90;;
11533;SDS011;5823;50.588;8.462;2023-05-23T04:26:32;1.55;;;1.30;;
11533;SDS011;5823;50.588;8.462;2023-05-23T04:29:00;2.10;;;1.30;;
11533;SDS011;5823;50.588;8.462;2023-05-23T04:31:26;1.20;;;1.10;;
11533;SDS011;5823;50.588;8.462;2023-05-23T04:33:52;1.02;;;0.98;;
11533;SDS011;5823;50.588;8.462;2023-05-23T04:36:20;2.90;;;1.05;;
11533;SDS011;5823;50.588;8.462;2023-05-23T04:38:47;1.10;;;1.00;;
11533;SDS011;5823;50.588;8.462;2023-05-23T04:41:13;1.25;;;1.15;;
11533;SDS011;5823;50.588;8.462;2023-05-23T04:43:40;0.90;;;0.90;;
11533;SDS011;5823;50.588;8.462;2023-05-23T04:46:07;1.00;;;1.00;;
11533;SDS011;5823;50.588;8.462;2023-05-23T04:48:34;0.63;;;0.63;;
11533;SDS011;5823;50.588;8.462;2023-05-23T04:51:01;0.73;;;0.73;;
11533;SDS011;5823;50.588;8.462;2023-05-23T04:53:33;0.50;;;0.50;;
11533;SDS011;5823;50.588;8.462;2023-05-23T04:56:01;0.35;;;0.35;;
11533;SDS011;5823;50.588;8.462;2023-05-23T04:58:27;0.40;;;0.40;;
11533;SDS011;5823;50.588;8.462;2023-05-23T05:00:53;0.40;;;0.40;;
11533;SDS011;5823;50.588;8.462;2023-05-23T05:03:19;0.90;;;0.90;;
11533;SDS011;5823;50.588;8.462;2023-05-23T05:05:48;0.40;;;0.40;;
11533;SDS011;5823;50.588;8.462;2023-05-23T05:08:15;0.43;;;0.43;;
11533;SDS011;5823;50.588;8.462;2023-05-23T05:10:45;0.40;;;0.40;;
11533;SDS011;5823;50.588;8.462;2023-05-23T05:13:11;0.40;;;0.40;;
11533;SDS011;5823;50.588;8.462;2023-05-23T05:15:37;0.22;;;0.22;;
11533;SDS011;5823;50.588;8.462;2023-05-23T05:18:03;0.20;;;0.20;;
11533;SDS011;5823;50.588;8.462;2023-05-23T05:20:30;0.30;;;0.30;;
11533;SDS011;5823;50.588;8.462;2023-05-23T05:22:56;0.45;;;0.45;;
11533;SDS011;5823;50.588;8.462;2023-05-23T05:25:22;0.22;;;0.22;;
11533;SDS011;5823;50.588;8.462;2023-05-23T05:27:52;0.40;;;0.38;;
11533;SDS011;5823;50.588;8.462;2023-05-23T05:30:18;0.20;;;0.20;;
11533;SDS011;5823;50.588;8.462;2023-05-23T05:32:45;0.20;;;0.20;;
11533;SDS011;5823;50.588;8.462;2023-05-23T05:35:11;1.38;;;0.40;;
11533;SDS011;5823;50.588;8.462;2023-05-23T05:37:38;0.43;;;0.43;;
11533;SDS011;5823;50.588;8.462;2023-05-23T05:40:05;0.63;;;0.45;;
11533;SDS011;5823;50.588;8.462;2023-05-23T05:42:32;0.20;;;0.20;;
11533;SDS011;5823;50.588;8.462;2023-05-23T05:45:00;0.30;;;0.30;;
11533;SDS011;5823;50.588;8.462;2023-05-23T05:47:26;0.50;;;0.50;;
11533;SDS011;5823;50.588;8.462;2023-05-23T05:49:52;0.43;;;0.43;;
11533;SDS011;5823;50.588;8.462;2023-05-23T05:52:18;0.60;;;0.60;;
11533;SDS011;5823;50.588;8.462;2023-05-23T05:54:45;0.73;;;0.63;;
11533;SDS011;5823;50.588;8.462;2023-05-23T05:57:11;0.60;;;0.60;;
11533;SDS011;5823;50.588;8.462;2023-05-23T05:59:37;0.40;;;0.40;;
11533;SDS011;5823;50.588;8.462;2023-05-23T06:02:05;0.40;;;0.40;;
11533;SDS011;5823;50.588;8.462;2023-05-23T06:04:32;0.35;;;0.35;;
11533;SDS011;5823;50.588;8.462;2023-05-23T06:06:58;0.28;;;0.28;;
11533;SDS011;5823;50.588;8.462;2023-05-23T06:09:24;0.38;;;0.38;;
11533;SDS011;5823;50.588;8.462;2023-05-23T06:11:50;0.40;;;0.40;;
11533;SDS011;5823;50.588;8.462;2023-05-23T06:14:17;0.65;;;0.65;;
11533;SDS011;5823;50.588;8.462;2023-05-23T06:16:43;0.30;;;0.30;;
11533;SDS011;5823;50.588;8.462;2023-05-23T06:19:10;0.40;;;0.40;;
11533;SDS011;5823;50.588;8.462;2023-05-23T06:21:36;0.30;;;0.30;;
11533;SDS011;5823;50.588;8.462;2023-05-23T06:24:03;0.40;;;0.40;;
11533;SDS011;5823;50.588;8.462;2023-05-23T06:26:29;0.60;;;0.60;;
11533;SDS011;5823;50.588;8.462;2023-05-23T06:28:55;0.40;;;0.40;;
11533;SDS011;5823;50.588;8.462;2023-05-23T06:31:22;0.60;;;0.60;;
11533;SDS011;5823;50.588;8.462;2023-05-23T06:33:48;0.40;;;0.40;;
11533;SDS011;5823;50.588;8.462;2023-05-23T06:36:16;0.40;;;0.40;;
11533;SDS011;5823;50.588;8.462;2023-05-23T06:38:42;0.20;;;0.20;;
11533;SDS011;5823;50.588;8.462;2023-05-23T06:41:08;0.32;;;0.32;;
11533;SDS011;5823;50.588;8.462;2023-05-23T06:43:35;0.63;;;0.63;;
11533;SDS011;5823;50.588;8.462;2023-05-23T06:46:01;0.20;;;0.20;;
11533;SDS011;5823;50.588;8.462;2023-05-23T06:48:27;0.40;;;0.40;;
11533;SDS011;5823;50.588;8.462;2023-05-23T06:50:53;0.40;;;0.40;;
11533;SDS011;5823;50.588;8.462;2023-05-23T06:53:21;0.40;;;0.40;;
11533;SDS011;5823;50.588;8.462;2023-05-23T06:55:47;0.70;;;0.70;;
11533;SDS011;5823;50.588;8.462;2023-05-23T06:58:14;0.60;;;0.60;;
11533;SDS011;5823;50.588;8.462;2023-05-23T07:00:40;0.88;;;0.88;;
11533;SDS011;5823;50.588;8.462;2023-05-23T07:03:06;1.00;;;0.88;;
11533;SDS011;5823;50.588;8.462;2023-05-23T07:05:32;1.35;;;1.10;;
11533;SDS011;5823;50.588;8.462;2023-05-23T07:08:00;0.80;;;0.80;;
11533;SDS011;5823;50.588;8.462;2023-05-23T07:10:28;0.70;;;0.70;;
11533;SDS011;5823;50.588;8.462;2023-05-23T07:12:54;0.60;;;0.60;;
11533;SDS011;5823;50.588;8.462;2023-05-23T07:15:20;0.50;;;0.50;;
11533;SDS011;5823;50.588;8.462;2023-05-23T07:17:46;0.50;;;0.50;;
11533;SDS011;5823;50.588;8.462;2023-05-23T07:20:13;0.40;;;0.40;;
11533;SDS011;5823;50.588;8.462;2023-05-23T07:22:39;0.60;;;0.60;;
11533;SDS011;5823;50.588;8.462;2023-05-23T07:25:06;0.50;;;0.50;;
11533;SDS011;5823;50.588;8.462;2023-05-23T07:27:33;0.60;;;0.60;;
11533;SDS011;5823;50.588;8.462;2023-05-23T07:30:00;0.40;;;0.40;;
11533;SDS011;5823;50.588;8.462;2023-05-23T07:32:26;0.40;;;0.40;;
11533;SDS011;5823;50.588;8.462;2023-05-23T07:34:53;0.50;;;0.50;;
11533;SDS011;5823;50.588;8.462;2023-05-23T07:37:19;0.30;;;0.30;;
11533;SDS011;5823;50.588;8.462;2023-05-23T07:39:45;0.70;;;0.70;;
11533;SDS011;5823;50.588;8.462;2023-05-23T07:42:12;0.63;;;0.63;;
11533;SDS011;5823;50.588;8.462;2023-05-23T07:44:39;0.32;;;0.32;;
11533;SDS011;5823;50.588;8.462;2023-05-23T07:47:06;0.50;;;0.50;;
11533;SDS011;5823;50.588;8.462;2023-05-23T07:49:32;0.80;;;0.80;;
11533;SDS011;5823;50.588;8.462;2023-05-23T07:51:59;0.70;;;0.70;;
11533;SDS011;5823;50.588;8.462;2023-05-23T07:54:26;0.75;;;0.75;;
11533;SDS011;5823;50.588;8.462;2023-05-23T07:56:52;0.70;;;0.70;;
11533;SDS011;5823;50.588;8.462;2023-05-23T07:59:18;1.23;;;1.13;;
11533;SDS011;5823;50.588;8.462;2023-05-23T08:01:47;0.60;;;0.60;;
11533;SDS011;5823;50.588;8.462;2023-05-23T08:04:15;0.75;;;0.75;;
11533;SDS011;5823;50.588;8.462;2023-05-23T08:06:41;0.73;;;0.73;;
11533;SDS011;5823;50.588;8.462;2023-05-23T08:09:11;0.70;;;0.70;;
11533;SDS011;5823;50.588;8.462;2023-05-23T08:11:37;0.90;;;0.90;;
11533;SDS011;5823;50.588;8.462;2023-05-23T08:14:03;0.80;;;0.80;;
11533;SDS011;5823;50.588;8.462;2023-05-23T08:16:29;0.75;;;0.73;;
11533;SDS011;5823;50.588;8.462;2023-05-23T08:18:57;0.93;;;0.93;;
11533;SDS011;5823;50.588;8.462;2023-05-23T08:21:23;0.90;;;0.90;;
11533;SDS011;5823;50.588;8.462;2023-05-23T08:23:49;0.73;;;0.73;;
11533;SDS011;5823;50.588;8.462;2023-05-23T08:26:16;0.45;;;0.45;;
11533;SDS011;5823;50.588;8.462;2023-05-23T08:28:42;0.80;;;0.80;;
11533;SDS011;5823;50.588;8.462;2023-05-23T08:31:08;0.60;;;0.60;;
11533;SDS011;5823;50.588;8.462;2023-05-23T08:33:35;0.73;;;0.73;;
11533;SDS011;5823;50.588;8.462;2023-05-23T08:36:03;0.70;;;0.70;;
11533;SDS011;5823;50.588;8.462;2023-05-23T08:38:29;0.90;;;0.90;;
11533;SDS011;5823;50.588;8.462;2023-05-23T08:40:56;0.80;;;0.80;;
11533;SDS011;5823;50.588;8.462;2023-05-23T08:43:25;1.17;;;1.08;;
11533;SDS011;5823;50.588;8.462;2023-05-23T08:45:51;0.80;;;0.80;;
11533;SDS011;5823;50.588;8.462;2023-05-23T08:48:19;0.90;;;0.90;;
11533;SDS011;5823;50.588;8.462;2023-05-23T08:50:46;1.00;;;1.00;;
11533;SDS011;5823;50.588;8.462;2023-05-23T08:53:14;1.02;;;1.00;;
11533;SDS011;5823;50.588;8.462;2023-05-23T08:55:44;0.80;;;0.80;;
11533;SDS011;5823;50.588;8.462;2023-05-23T08:58:11;0.82;;;0.82;;
11533;SDS011;5823;50.588;8.462;2023-05-23T09:00:38;2.70;;;1.40;;
11533;SDS011;5823;50.588;8.462;2023-05-23T09:03:05;1.30;;;1.20;;
11533;SDS011;5823;50.588;8.462;2023-05-23T09:05:31;1.27;;;1.17;;
11533;SDS011;5823;50.588;8.462;2023-05-23T09:07:58;1.23;;;1.13;;
11533;SDS011;5823;50.588;8.462;2023-05-23T09:10:25;1.27;;;1.17;;
11533;SDS011;5823;50.588;8.462;2023-05-23T09:12:53;1.20;;;1.10;;
11533;SDS011;5823;50.588;8.462;2023-05-23T09:15:20;1.38;;;1.27;;
11533;SDS011;5823;50.588;8.462;2023-05-23T09:17:47;1.30;;;1.20;;
11533;SDS011;5823;50.588;8.462;2023-05-23T09:20:14;0.90;;;0.90;;
11533;SDS011;5823;50.588;8.462;2023-05-23T09:22:43;1.20;;;1.10;;
11533;SDS011;5823;50.588;8.462;2023-05-23T09:25:10;1.02;;;0.93;;
11533;SDS011;5823;50.588;8.462;2023-05-23T09:27:38;0.88;;;0.88;;
11533;SDS011;5823;50.588;8.462;2023-05-23T09:30:05;0.80;;;0.80;;
11533;SDS011;5823;50.588;8.462;2023-05-23T09:32:31;1.17;;;1.08;;
11533;SDS011;5823;50.588;8.462;2023-05-23T09:34:58;1.13;;;1.08;;
11533;SDS011;5823;50.588;8.462;2023-05-23T09:37:29;1.00;;;1.00;;
11533;SDS011;5823;50.588;8.462;2023-05-23T09:39:57;0.77;;;0.77;;
11533;SDS011;5823;50.588;8.462;2023-05-23T09:42:24;0.90;;;0.90;;
11533;SDS011;5823;50.588;8.462;2023-05-23T09:44:52;0.90;;;0.90;;
11533;SDS011;5823;50.588;8.462;2023-05-23T09:47:18;0.70;;;0.70;;
11533;SDS011;5823;50.588;8.462;2023-05-23T09:49:45;0.93;;;0.93;;
11533;SDS011;5823;50.588;8.462;2023-05-23T09:52:11;1.00;;;0.90;;
11533;SDS011;5823;50.588;8.462;2023-05-23T09:54:38;0.85;;;0.85;;
11533;SDS011;5823;50.588;8.462;2023-05-23T09:57:04;0.70;;;0.70;;
11533;SDS011;5823;50.588;8.462;2023-05-23T09:59:34;0.90;;;0.90;;
11533;SDS011;5823;50.588;8.462;2023-05-23T10:02:05;1.02;;;1.00;;
11533;SDS011;5823;50.588;8.462;2023-05-23T10:04:33;0.80;;;0.80;;
11533;SDS011;5823;50.588;8.462;2023-05-23T10:07:00;0.80;;;0.80;;
11533;SDS011;5823;50.588;8.462;2023-05-23T10:09:30;0.65;;;0.60;;
11533;SDS011;5823;50.588;8.462;2023-05-23T10:14:44;0.70;;;0.70;;
11533;SDS011;5823;50.588;8.462;2023-05-23T10:17:14;1.00;;;0.90;;
11533;SDS011;5823;50.588;8.462;2023-05-23T10:19:45;0.90;;;0.90;;
11533;SDS011;5823;50.588;8.462;2023-05-23T10:22:13;0.60;;;0.60;;
11533;SDS011;5823;50.588;8.462;2023-05-23T10:24:40;0.60;;;0.60;;
11533;SDS011;5823;50.588;8.462;2023-05-23T10:27:09;0.50;;;0.50;;
11533;SDS011;5823;50.588;8.462;2023-05-23T10:29:36;0.40;;;0.40;;
11533;SDS011;5823;50.588;8.462;2023-05-23T10:32:02;0.68;;;0.43;;
11533;SDS011;5823;50.588;8.462;2023-05-23T10:34:33;0.55;;;0.52;;
11533;SDS011;5823;50.588;8.462;2023-05-23T10:37:03;0.35;;;0.35;;
11533;SDS011;5823;50.588;8.462;2023-05-23T10:39:35;0.63;;;0.63;;
11533;SDS011;5823;50.588;8.462;2023-05-23T10:42:06;0.70;;;0.70;;
11533;SDS011;5823;50.588;8.462;2023-05-23T10:44:33;0.40;;;0.40;;
11533;SDS011;5823;50.588;8.462;2023-05-23T10:47:02;0.50;;;0.50;;
11533;SDS011;5823;50.588;8.462;2023-05-23T10:49:39;0.40;;;0.40;;
11533;SDS011;5823;50.588;8.462;2023-05-23T10:52:05;0.30;;;0.30;;
11533;SDS011;5823;50.588;8.462;2023-05-23T10:54:35;0.90;;;0.60;;
11533;SDS011;5823;50.588;8.462;2023-05-23T10:57:02;0.70;;;0.70;;
11533;SDS011;5823;50.588;8.462;2023-05-23T10:59:28;0.60;;;0.60;;
11533;SDS011;5823;50.588;8.462;2023-05-23T11:01:55;0.35;;;0.35;;
11533;SDS011;5823;50.588;8.462;2023-05-23T11:04:24;0.50;;;0.50;;
11533;SDS011;5823;50.588;8.462;2023-05-23T11:06:52;0.50;;;0.50;;
11533;SDS011;5823;50.588;8.462;2023-05-23T11:09:19;0.40;;;0.40;;
11533;SDS011;5823;50.588;8.462;2023-05-23T11:11:58;0.80;;;0.80;;
11533;SDS011;5823;50.588;8.462;2023-05-23T11:17:16;0.70;;;0.70;;
11533;SDS011;5823;50.588;8.462;2023-05-23T11:19:55;0.82;;;0.82;;
11533;SDS011;5823;50.588;8.462;2023-05-23T11:22:27;0.80;;;0.80;;
11533;SDS011;5823;50.588;8.462;2023-05-23T11:24:55;1.05;;;0.80;;
11533;SDS011;5823;50.588;8.462;2023-05-23T11:27:27;0.77;;;0.77;;
11533;SDS011;5823;50.588;8.462;2023-05-23T11:29:55;0.65;;;0.65;;
11533;SDS011;5823;50.588;8.462;2023-05-23T11:32:22;0.90;;;0.88;;
11533;SDS011;5823;50.588;8.462;2023-05-23T11:34:48;0.70;;;0.70;;
11533;SDS011;5823;50.588;8.462;2023-05-23T11:37:15;1.00;;;1.00;;
11533;SDS011;5823;50.588;8.462;2023-05-23T11:39:43;0.70;;;0.70;;
11533;SDS011;5823;50.588;8.462;2023-05-23T11:42:09;0.90;;;0.90;;
11533;SDS011;5823;50.588;8.462;2023-05-23T11:44:35;1.10;;;1.00;;
11533;SDS011;5823;50.588;8.462;2023-05-23T11:47:02;0.73;;;0.73;;
11533;SDS011;5823;50.588;8.462;2023-05-23T11:49:29;0.80;;;0.80;;
11533;SDS011;5823;50.588;8.462;2023-05-23T11:51:56;0.80;;;0.80;;
11533;SDS011;5823;50.588;8.462;2023-05-23T11:54:22;0.90;;;0.90;;
11533;SDS011;5823;50.588;8.462;2023-05-23T11:56:50;1.10;;;1.02;;
11533;SDS011;5823;50.588;8.462;2023-05-23T11:59:17;1.30;;;1.20;;
11533;SDS011;5823;50.588;8.462;2023-05-23T12:01:43;1.02;;;1.00;;
11533;SDS011;5823;50.588;8.462;2023-05-23T12:04:09;1.45;;;1.35;;
11533;SDS011;5823;50.588;8.462;2023-05-23T12:06:37;1.42;;;1.33;;
11533;SDS011;5823;50.588;8.462;2023-05-23T12:09:04;1.63;;;1.40;;
11533;SDS011;5823;50.588;8.462;2023-05-23T12:11:30;1.15;;;1.08;;
11533;SDS011;5823;50.588;8.462;2023-05-23T12:13:58;1.30;;;1.20;;
11533;SDS011;5823;50.588;8.462;2023-05-23T12:16:26;1.27;;;1.17;;
11533;SDS011;5823;50.588;8.462;2023-05-23T12:18:53;1.20;;;1.10;;
11533;SDS011;5823;50.588;8.462;2023-05-23T12:21:23;1.40;;;1.30;;
11533;SDS011;5823;50.588;8.462;2023-05-23T12:23:50;1.05;;;0.95;;
11533;SDS011;5823;50.588;8.462;2023-05-23T12:26:16;1.30;;;1.20;;
11533;SDS011;5823;50.588;8.462;2023-05-23T12:28:43;1.63;;;1.30;;
11533;SDS011;5823;50.588;8.462;2023-05-23T12:31:12;1.98;;;1.77;;
11533;SDS011;5823;50.588;8.462;2023-05-23T12:33:38;1.75;;;1.65;;
11533;SDS011;5823;50.588;8.462;2023-05-23T12:36:06;1.63;;;1.52;;
11533;SDS011;5823;50.588;8.462;2023-05-23T12:38:32;1.70;;;1.45;;
11533;SDS011;5823;50.588;8.462;2023-05-23T12:41:08;1.25;;;1.15;;
11533;SDS011;5823;50.588;8.462;2023-05-23T12:43:36;1.40;;;1.30;;
11533;SDS011;5823;50.588;8.462;2023-05-23T12:46:02;1.17;;;1.13;;
11533;SDS011;5823;50.588;8.462;2023-05-23T12:48:30;1.65;;;1.55;;
11533;SDS011;5823;50.588;8.462;2023-05-23T12:50:57;1.88;;;1.45;;
11533;SDS011;5823;50.588;8.462;2023-05-23T12:53:24;1.48;;;1.38;;
11533;SDS011;5823;50.588;8.462;2023-05-23T12:55:50;1.38;;;1.27;;
11533;SDS011;5823;50.588;8.462;2023-05-23T12:58:17;1.33;;;1.23;;
11533;SDS011;5823;50.588;8.462;2023-05-23T13:00:43;1.40;;;1.30;;
11533;SDS011;5823;50.588;8.462;2023-05-23T13:03:09;0.90;;;0.90;;
11533;SDS011;5823;50.588;8.462;2023-05-23T13:05:37;1.08;;;1.08;;
11533;SDS011;5823;50.588;8.462;2023-05-23T13:08:03;0.80;;;0.80;;
11533;SDS011;5823;50.588;8.462;2023-05-23T13:10:30;1.30;;;1.20;;
11533;SDS011;5823;50.588;8.462;2023-05-23T13:12:56;1.83;;;1.67;;
11533;SDS011;5823;50.588;8.462;2023-05-23T13:15:23;2.08;;;1.88;;
11533;SDS011;5823;50.588;8.462;2023-05-23T13:17:49;1.40;;;1.30;;
11533;SDS011;5823;50.588;8.462;2023-05-23T13:20:16;1.52;;;1.20;;
11533;SDS011;5823;50.588;8.462;2023-05-23T13:22:43;1.10;;;1.00;;
11533;SDS011;5823;50.588;8.462;2023-05-23T13:25:10;1.20;;;1.10;;
11533;SDS011;5823;50.588;8.462;2023-05-23T13:27:36;1.00;;;0.90;;
11533;SDS011;5823;50.588;8.462;2023-05-23T13:30:03;1.25;;;1.15;;
11533;SDS011;5823;50.588;8.462;2023-05-23T13:32:29;1.05;;;1.05;;
11533;SDS011;5823;50.588;8.462;2023-05-23T13:34:55;1.23;;;1.13;;
11533;SDS011;5823;50.588;8.462;2023-05-23T13:37:21;1.13;;;1.02;;
11533;SDS011;5823;50.588;8.462;2023-05-23T13:39:49;0.85;;;0.85;;
11533;SDS011;5823;50.588;8.462;2023-05-23T13:42:15;1.05;;;1.00;;
11533;SDS011;5823;50.588;8.462;2023-05-23T13:44:41;0.90;;;0.90;;
11533;SDS011;5823;50.588;8.462;2023-05-23T13:47:08;1.05;;;1.05;;
11533;SDS011;5823;50.588;8.462;2023-05-23T13:49:35;0.80;;;0.80;;
11533;SDS011;5823;50.588;8.462;2023-05-23T13:52:01;0.70;;;0.70;;
11533;SDS011;5823;50.588;8.462;2023-05-23T13:54:27;0.90;;;0.90;;
11533;SDS011;5823;50.588;8.462;2023-05-23T13:56:55;1.40;;;1.30;;
11533;SDS011;5823;50.588;8.462;2023-05-23T13:59:22;0.70;;;0.70;;
11533;SDS011;5823;50.588;8.462;2023-05-23T14:01:48;0.88;;;0.88;;
11533;SDS011;5823;50.588;8.462;2023-05-23T14:04:15;0.70;;;0.70;;
11533;SDS011;5823;50.588;8.462;2023-05-23T14:06:41;0.90;;;0.90;;
11533;SDS011;5823;50.588;8.462;2023-05-23T14:09:07;0.68;;;0.68;;
11533;SDS011;5823;50.588;8.462;2023-05-23T14:11:33;0.82;;;0.82;;
11533;SDS011;5823;50.588;8.462;2023-05-23T14:14:01;0.75;;;0.70;;
11533;SDS011;5823;50.588;8.462;2023-05-23T14:16:27;0.90;;;0.90;;
11533;SDS011;5823;50.588;8.462;2023-05-23T14:18:54;1.00;;;0.75;;
11533;SDS011;5823;50.588;8.462;2023-05-23T14:21:20;0.60;;;0.60;;
11533;SDS011;5823;50.588;8.462;2023-05-23T14:23:46;1.25;;;0.80;;
11533;SDS011;5823;50.588;8.462;2023-05-23T14:26:13;0.80;;;0.80;;
11533;SDS011;5823;50.588;8.462;2023-05-23T14:28:39;1.77;;;1.67;;
11533;SDS011;5823;50.588;8.462;2023-05-23T14:31:06;1.55;;;1.45;;
11533;SDS011;5823;50.588;8.462;2023-05-23T14:33:33;1.30;;;1.20;;
11533;SDS011;5823;50.588;8.462;2023-05-23T14:35:59;1.58;;;1.15;;
11533;SDS011;5823;50.588;8.462;2023-05-23T14:38:26;1.85;;;1.60;;
11533;SDS011;5823;50.588;8.462;2023-05-23T14:40:52;1.27;;;1.17;;
11533;SDS011;5823;50.588;8.462;2023-05-23T14:43:18;1.27;;;1.17;;
11533;SDS011;5823;50.588;8.462;2023-05-23T14:45:44;1.05;;;1.00;;
11533;SDS011;5823;50.588;8.462;2023-05-23T14:48:12;1.08;;;1.00;;
11533;SDS011;5823;50.588;8.462;2023-05-23T14:50:38;1.00;;;1.00;;
11533;SDS011;5823;50.588;8.462;2023-05-23T14:53:05;0.90;;;0.90;;
11533;SDS011;5823;50.588;8.462;2023-05-23T14:55:31;1.30;;;1.20;;
11533;SDS011;5823;50.588;8.462;2023-05-23T14:57:57;0.90;;;0.90;;
11533;SDS011;5823;50.588;8.462;2023-05-23T15:00:24;0.60;;;0.60;;
11533;SDS011;5823;50.588;8.462;2023-05-23T15:02:50;1.10;;;1.00;;
11533;SDS011;5823;50.588;8.462;2023-05-23T15:05:17;0.88;;;0.88;;